sensor_id;sensor_type;location;lat;lon;timestamp;temperature;humidity
40630;DHT22;26329;40.388;-3.710;2022-07-17T00:05:21;31.90;24.70
40630;DHT22;26329;40.388;-3.710;2022-07-17T00:15:23;31.30;25.40
40630;DHT22;26329;40.388;-3.710;2022-07-17T00:25:25;31.10;25.20
40630;DHT22;26329;40.388;-3.710;2022-07-17T00:35:28;31.10;25.40
40630;DHT22;26329;40.388;-3.710;2022-07-17T00:45:31;31.20;25.40
40630;DHT22;26329;40.388;-3.710;2022-07-17T00:55:34;31.20;25.10
40630;DHT22;26329;40.388;-3.710;2022-07-17T01:05:37;31.40;24.50
40630;DHT22;26329;40.388;-3.710;2022-07-17T01:15:41;31.40;24.20
40630;DHT22;26329;40.388;-3.710;2022-07-17T01:25:45;31.40;24.10
40630;DHT22;26329;40.388;-3.710;2022-07-17T01:35:50;31.30;24.10
40630;DHT22;26329;40.388;-3.710;2022-07-17T01:45:53;31.20;24.20
40630;DHT22;26329;40.388;-3.710;2022-07-17T01:55:58;31.10;24.30
40630;DHT22;26329;40.388;-3.710;2022-07-17T02:06:03;31.10;24.40
40630;DHT22;26329;40.388;-3.710;2022-07-17T02:16:08;31.00;24.40
40630;DHT22;26329;40.388;-3.710;2022-07-17T02:26:14;30.90;24.60
40630;DHT22;26329;40.388;-3.710;2022-07-17T02:36:19;30.70;24.90
40630;DHT22;26329;40.388;-3.710;2022-07-17T02:46:23;30.60;25.00
40630;DHT22;26329;40.388;-3.710;2022-07-17T02:56:27;30.40;25.40
40630;DHT22;26329;40.388;-3.710;2022-07-17T03:06:30;30.20;25.70
40630;DHT22;26329;40.388;-3.710;2022-07-17T03:16:34;30.00;25.90
40630;DHT22;26329;40.388;-3.710;2022-07-17T03:26:40;29.50;27.10
40630;DHT22;26329;40.388;-3.710;2022-07-17T03:36:42;29.20;27.30
40630;DHT22;26329;40.388;-3.710;2022-07-17T03:46:44;29.60;27.10
40630;DHT22;26329;40.388;-3.710;2022-07-17T03:56:46;29.10;27.90
40630;DHT22;26329;40.388;-3.710;2022-07-17T04:06:49;28.60;28.60
40630;DHT22;26329;40.388;-3.710;2022-07-17T04:16:51;28.30;29.00
40630;DHT22;26329;40.388;-3.710;2022-07-17T04:26:53;28.20;29.40
40630;DHT22;26329;40.388;-3.710;2022-07-17T04:36:55;28.20;29.50
40630;DHT22;26329;40.388;-3.710;2022-07-17T04:46:57;27.90;29.70
40630;DHT22;26329;40.388;-3.710;2022-07-17T04:57:00;28.10;29.90
40630;DHT22;26329;40.388;-3.710;2022-07-17T05:07:02;28.40;30.10
40630;DHT22;26329;40.388;-3.710;2022-07-17T05:17:04;28.50;30.10
40630;DHT22;26329;40.388;-3.710;2022-07-17T05:27:05;28.60;30.20
40630;DHT22;26329;40.388;-3.710;2022-07-17T05:37:07;28.70;30.10
40630;DHT22;26329;40.388;-3.710;2022-07-17T05:47:10;28.70;30.20
40630;DHT22;26329;40.388;-3.710;2022-07-17T05:57:12;28.70;30.30
40630;DHT22;26329;40.388;-3.710;2022-07-17T06:07:15;28.80;30.20
40630;DHT22;26329;40.388;-3.710;2022-07-17T06:17:17;28.80;30.50
40630;DHT22;26329;40.388;-3.710;2022-07-17T06:27:19;28.90;30.50
40630;DHT22;26329;40.388;-3.710;2022-07-17T06:37:21;28.90;30.70
40630;DHT22;26329;40.388;-3.710;2022-07-17T06:47:22;29.10;30.70
40630;DHT22;26329;40.388;-3.710;2022-07-17T06:57:24;29.30;30.40
40630;DHT22;26329;40.388;-3.710;2022-07-17T07:07:26;29.50;30.20
40630;DHT22;26329;40.388;-3.710;2022-07-17T07:17:27;30.10;29.70
40630;DHT22;26329;40.388;-3.710;2022-07-17T07:27:30;30.70;29.30
40630;DHT22;26329;40.388;-3.710;2022-07-17T07:37:31;31.30;28.10
40630;DHT22;26329;40.388;-3.710;2022-07-17T07:47:40;31.80;27.70
40630;DHT22;26329;40.388;-3.710;2022-07-17T07:57:42;32.40;26.80
40630;DHT22;26329;40.388;-3.710;2022-07-17T08:17:47;33.00;25.80
40630;DHT22;26329;40.388;-3.710;2022-07-17T08:27:50;33.20;25.70
40630;DHT22;26329;40.388;-3.710;2022-07-17T08:37:53;33.70;25.10
40630;DHT22;26329;40.388;-3.710;2022-07-17T08:47:55;33.90;25.10
40630;DHT22;26329;40.388;-3.710;2022-07-17T08:57:57;34.20;24.70
40630;DHT22;26329;40.388;-3.710;2022-07-17T09:08:01;34.50;24.40
40630;DHT22;26329;40.388;-3.710;2022-07-17T09:18:03;34.70;23.60
40630;DHT22;26329;40.388;-3.710;2022-07-17T09:28:06;34.90;23.80
40630;DHT22;26329;40.388;-3.710;2022-07-17T09:38:08;35.10;23.70
40630;DHT22;26329;40.388;-3.710;2022-07-17T09:48:12;35.10;23.20
40630;DHT22;26329;40.388;-3.710;2022-07-17T09:58:20;35.40;23.10
40630;DHT22;26329;40.388;-3.710;2022-07-17T10:08:24;35.70;22.90
40630;DHT22;26329;40.388;-3.710;2022-07-17T10:18:39;35.80;22.50
40630;DHT22;26329;40.388;-3.710;2022-07-17T10:28:47;36.00;22.10
40630;DHT22;26329;40.388;-3.710;2022-07-17T10:38:48;36.10;21.90
40630;DHT22;26329;40.388;-3.710;2022-07-17T10:48:50;35.90;22.00
40630;DHT22;26329;40.388;-3.710;2022-07-17T10:58:53;36.30;21.20
40630;DHT22;26329;40.388;-3.710;2022-07-17T11:09:01;36.40;20.70
40630;DHT22;26329;40.388;-3.710;2022-07-17T11:19:03;36.50;20.50
40630;DHT22;26329;40.388;-3.710;2022-07-17T11:29:05;36.70;19.80
40630;DHT22;26329;40.388;-3.710;2022-07-17T11:39:12;36.80;20.10
40630;DHT22;26329;40.388;-3.710;2022-07-17T11:49:43;36.90;19.60
40630;DHT22;26329;40.388;-3.710;2022-07-17T11:59:46;37.10;19.80
40630;DHT22;26329;40.388;-3.710;2022-07-17T12:09:48;37.20;19.10
40630;DHT22;26329;40.388;-3.710;2022-07-17T12:19:51;37.20;19.20
40630;DHT22;26329;40.388;-3.710;2022-07-17T12:29:53;37.40;18.90
40630;DHT22;26329;40.388;-3.710;2022-07-17T12:39:57;37.50;18.60
40630;DHT22;26329;40.388;-3.710;2022-07-17T12:50:00;37.70;18.10
40630;DHT22;26329;40.388;-3.710;2022-07-17T13:00:01;37.80;17.60
40630;DHT22;26329;40.388;-3.710;2022-07-17T13:10:03;37.90;17.70
40630;DHT22;26329;40.388;-3.710;2022-07-17T13:20:08;37.70;17.60
40630;DHT22;26329;40.388;-3.710;2022-07-17T13:30:11;38.00;17.00
40630;DHT22;26329;40.388;-3.710;2022-07-17T13:40:15;38.00;16.90
40630;DHT22;26329;40.388;-3.710;2022-07-17T13:50:20;38.00;16.70
40630;DHT22;26329;40.388;-3.710;2022-07-17T14:00:23;38.30;16.00
40630;DHT22;26329;40.388;-3.710;2022-07-17T14:10:25;38.30;16.30
40630;DHT22;26329;40.388;-3.710;2022-07-17T14:20:27;38.30;16.20
40630;DHT22;26329;40.388;-3.710;2022-07-17T14:30:28;38.40;16.10
40630;DHT22;26329;40.388;-3.710;2022-07-17T14:40:30;38.60;16.30
40630;DHT22;26329;40.388;-3.710;2022-07-17T14:50:32;38.80;15.90
40630;DHT22;26329;40.388;-3.710;2022-07-17T15:00:33;38.80;16.10
40630;DHT22;26329;40.388;-3.710;2022-07-17T15:10:35;38.70;16.20
40630;DHT22;26329;40.388;-3.710;2022-07-17T15:20:37;38.80;16.70
40630;DHT22;26329;40.388;-3.710;2022-07-17T15:30:38;38.90;16.40
40630;DHT22;26329;40.388;-3.710;2022-07-17T15:40:40;38.90;16.70
40630;DHT22;26329;40.388;-3.710;2022-07-17T15:50:42;38.80;16.80
40630;DHT22;26329;40.388;-3.710;2022-07-17T16:00:43;38.60;17.30
40630;DHT22;26329;40.388;-3.710;2022-07-17T16:10:45;38.80;17.00
40630;DHT22;26329;40.388;-3.710;2022-07-17T16:20:47;38.80;17.10
40630;DHT22;26329;40.388;-3.710;2022-07-17T16:30:48;38.80;16.60
40630;DHT22;26329;40.388;-3.710;2022-07-17T16:40:50;39.00;16.70
40630;DHT22;26329;40.388;-3.710;2022-07-17T16:50:52;38.80;16.40
40630;DHT22;26329;40.388;-3.710;2022-07-17T17:00:54;38.80;16.40
40630;DHT22;26329;40.388;-3.710;2022-07-17T17:10:56;38.80;16.70
40630;DHT22;26329;40.388;-3.710;2022-07-17T17:20:58;38.80;15.90
40630;DHT22;26329;40.388;-3.710;2022-07-17T17:31:00;38.70;16.00
40630;DHT22;26329;40.388;-3.710;2022-07-17T17:41:01;38.60;16.60
40630;DHT22;26329;40.388;-3.710;2022-07-17T17:51:04;38.60;16.30
40630;DHT22;26329;40.388;-3.710;2022-07-17T18:01:05;38.60;16.70
40630;DHT22;26329;40.388;-3.710;2022-07-17T18:11:07;38.50;17.10
40630;DHT22;26329;40.388;-3.710;2022-07-17T18:21:09;38.40;17.50
40630;DHT22;26329;40.388;-3.710;2022-07-17T18:31:11;38.30;17.60
40630;DHT22;26329;40.388;-3.710;2022-07-17T18:41:13;38.10;17.70
40630;DHT22;26329;40.388;-3.710;2022-07-17T18:51:14;37.90;17.90
40630;DHT22;26329;40.388;-3.710;2022-07-17T19:01:16;37.80;18.00
40630;DHT22;26329;40.388;-3.710;2022-07-17T19:11:17;37.60;18.30
40630;DHT22;26329;40.388;-3.710;2022-07-17T19:21:20;37.40;18.70
40630;DHT22;26329;40.388;-3.710;2022-07-17T19:31:23;37.20;18.90
40630;DHT22;26329;40.388;-3.710;2022-07-17T19:41:25;37.10;19.10
40630;DHT22;26329;40.388;-3.710;2022-07-17T19:51:27;36.90;19.40
40630;DHT22;26329;40.388;-3.710;2022-07-17T20:01:28;36.60;19.80
40630;DHT22;26329;40.388;-3.710;2022-07-17T20:11:30;36.40;19.80
40630;DHT22;26329;40.388;-3.710;2022-07-17T20:21:32;36.30;19.50
40630;DHT22;26329;40.388;-3.710;2022-07-17T20:31:35;36.00;19.70
40630;DHT22;26329;40.388;-3.710;2022-07-17T20:41:40;35.80;19.70
40630;DHT22;26329;40.388;-3.710;2022-07-17T20:51:43;35.60;19.80
40630;DHT22;26329;40.388;-3.710;2022-07-17T21:01:44;35.40;19.60
40630;DHT22;26329;40.388;-3.710;2022-07-17T21:11:47;35.20;19.50
40630;DHT22;26329;40.388;-3.710;2022-07-17T21:21:48;35.10;19.20
40630;DHT22;26329;40.388;-3.710;2022-07-17T21:31:51;34.90;19.20
40630;DHT22;26329;40.388;-3.710;2022-07-17T21:41:52;34.70;19.20
40630;DHT22;26329;40.388;-3.710;2022-07-17T21:51:54;34.60;19.30
40630;DHT22;26329;40.388;-3.710;2022-07-17T22:01:55;34.40;19.60
40630;DHT22;26329;40.388;-3.710;2022-07-17T22:11:57;34.20;20.00
40630;DHT22;26329;40.388;-3.710;2022-07-17T22:21:59;33.90;20.40
40630;DHT22;26329;40.388;-3.710;2022-07-17T22:32:01;33.80;20.10
40630;DHT22;26329;40.388;-3.710;2022-07-17T22:42:03;33.60;20.10
40630;DHT22;26329;40.388;-3.710;2022-07-17T22:52:05;33.50;20.20
40630;DHT22;26329;40.388;-3.710;2022-07-17T23:02:07;33.40;20.40
40630;DHT22;26329;40.388;-3.710;2022-07-17T23:12:09;33.10;20.70
40630;DHT22;26329;40.388;-3.710;2022-07-17T23:22:11;33.00;20.90
40630;DHT22;26329;40.388;-3.710;2022-07-17T23:32:15;32.90;21.00
40630;DHT22;26329;40.388;-3.710;2022-07-17T23:42:26;32.70;21.20
40630;DHT22;26329;40.388;-3.710;2022-07-17T23:52:27;32.60;21.60
